createdAt,value
2023-04-15T00:00:01.164Z,78.85
2023-04-15T00:01:01.141Z,78.74
2023-04-15T00:02:01.186Z,78.85
2023-04-15T00:03:01.227Z,78.78
2023-04-15T00:04:01.141Z,78.94
2023-04-15T00:05:01.085Z,78.88
2023-04-15T00:06:01.060Z,78.77
2023-04-15T00:07:01.058Z,78.78
2023-04-15T00:08:01.045Z,78.88
2023-04-15T00:09:01.466Z,78.95
2023-04-15T00:10:01.030Z,78.88
2023-04-15T00:11:00.985Z,78.96
2023-04-15T00:12:01.030Z,78.98
2023-04-15T00:13:00.991Z,79.08
2023-04-15T00:14:00.963Z,79.15
2023-04-15T00:15:00.963Z,79.03
2023-04-15T00:16:00.958Z,79.08
2023-04-15T00:17:00.950Z,79.04
2023-04-15T00:18:00.950Z,79.03
2023-04-15T00:19:01.067Z,79.02
2023-04-15T00:20:00.888Z,78.98
2023-04-15T00:21:00.883Z,79.01
2023-04-15T00:22:00.888Z,79.03
2023-04-15T00:23:00.892Z,79.08
2023-04-15T00:24:00.815Z,79.18
2023-04-15T00:25:00.822Z,78.96
2023-04-15T00:26:00.835Z,78.89
2023-04-15T00:27:00.788Z,79.00
2023-04-15T00:28:00.791Z,78.94
2023-04-15T00:29:00.947Z,78.83
2023-04-15T00:30:00.747Z,78.86
2023-04-15T00:31:00.803Z,78.93
2023-04-15T00:32:00.743Z,78.94
2023-04-15T00:33:00.775Z,78.80
2023-04-15T00:34:00.706Z,79.20
2023-04-15T00:35:00.697Z,79.20
2023-04-15T00:36:00.666Z,79.08
2023-04-15T00:37:00.669Z,79.00
2023-04-15T00:38:00.685Z,78.96
2023-04-15T00:39:00.864Z,78.97
2023-04-15T00:40:00.614Z,79.07
2023-04-15T00:41:00.630Z,79.04
2023-04-15T00:42:00.607Z,79.12
2023-04-15T00:43:00.607Z,79.07
2023-04-15T00:44:00.583Z,79.06
2023-04-15T00:45:00.550Z,78.88
2023-04-15T00:46:00.595Z,78.98
2023-04-15T00:47:00.552Z,79.02
2023-04-15T00:48:00.667Z,79.02
2023-04-15T00:49:00.793Z,78.83
2023-04-15T00:50:00.497Z,78.84
2023-04-15T00:51:00.477Z,78.90
2023-04-15T00:52:00.499Z,78.89
2023-04-15T00:53:00.467Z,78.91
2023-04-15T00:54:00.447Z,78.90
2023-04-15T00:55:00.454Z,78.90
2023-04-15T00:56:00.445Z,79.12
2023-04-15T00:57:00.405Z,79.09
2023-04-15T00:58:00.416Z,79.06
2023-04-15T00:59:00.560Z,79.06
2023-04-15T01:00:00.378Z,78.89
2023-04-15T01:01:00.393Z,79.04
2023-04-15T01:02:00.455Z,79.08
2023-04-15T01:03:00.778Z,78.96
2023-04-15T01:04:00.491Z,79.12
2023-04-15T01:05:00.303Z,79.00
2023-04-15T01:06:01.560Z,78.86
2023-04-15T01:07:00.262Z,78.82
2023-04-15T01:08:00.294Z,78.92
2023-04-15T01:09:00.532Z,78.89
2023-04-15T01:10:00.290Z,78.92
2023-04-15T01:11:00.236Z,78.86
2023-04-15T01:12:00.231Z,78.86
2023-04-15T01:13:00.188Z,78.94
2023-04-15T01:14:00.187Z,79.01
2023-04-15T01:15:00.259Z,79.08
2023-04-15T01:16:00.226Z,78.99
2023-04-15T01:17:00.191Z,78.65
2023-04-15T01:18:00.377Z,78.54
2023-04-15T01:19:00.450Z,78.60
2023-04-15T01:20:00.173Z,78.88
2023-04-15T01:21:00.129Z,78.68
2023-04-15T01:22:00.128Z,78.54
2023-04-15T01:23:00.108Z,78.43
2023-04-15T01:24:00.077Z,78.51
2023-04-15T01:25:00.040Z,78.36
2023-04-15T01:26:00.034Z,78.49
2023-04-15T01:27:00.032Z,78.37
2023-04-15T01:27:59.994Z,78.48
2023-04-15T01:29:00.212Z,78.44
2023-04-15T01:30:00.012Z,78.43
2023-04-15T01:30:59.961Z,78.58
2023-04-15T01:31:59.978Z,78.43
2023-04-15T01:32:59.968Z,78.53
2023-04-15T01:33:59.931Z,78.32
2023-04-15T01:34:59.909Z,78.41
2023-04-15T01:35:59.897Z,78.31
2023-04-15T01:36:59.879Z,78.24
2023-04-15T01:37:59.898Z,78.25
2023-04-15T01:39:00.152Z,78.37
2023-04-15T01:39:59.868Z,78.35
2023-04-15T01:40:59.837Z,78.21
2023-04-15T01:41:59.818Z,78.37
2023-04-15T01:42:59.818Z,78.28
2023-04-15T01:43:59.863Z,78.16
2023-04-15T01:44:59.777Z,78.04
2023-04-15T01:45:59.763Z,78.04
2023-04-15T01:46:59.805Z,78.17
2023-04-15T01:47:59.831Z,78.10
2023-04-15T01:48:59.929Z,77.90
2023-04-15T01:49:59.772Z,78.02
2023-04-15T01:50:59.700Z,78.01
2023-04-15T01:51:59.689Z,77.92
2023-04-15T01:52:59.670Z,78.04
2023-04-15T01:53:59.676Z,78.04
2023-04-15T01:54:59.692Z,78.08
2023-04-15T01:55:59.636Z,78.14
2023-04-15T01:56:59.622Z,78.19
2023-04-15T01:57:59.643Z,78.07
2023-04-15T01:58:59.790Z,78.01
2023-04-15T01:59:59.623Z,78.05
2023-04-15T02:00:59.606Z,78.10
2023-04-15T02:01:59.583Z,78.10
2023-04-15T02:02:59.590Z,78.07
2023-04-15T02:03:59.602Z,77.95
2023-04-15T02:04:59.528Z,77.99
2023-04-15T02:05:59.509Z,78.33
2023-04-15T02:06:59.488Z,78.09
2023-04-15T02:07:59.482Z,78.00
2023-04-15T02:08:59.698Z,78.18
2023-04-15T02:09:59.474Z,78.34
2023-04-15T02:10:59.432Z,78.15
2023-04-15T02:11:59.436Z,78.13
2023-04-15T02:12:59.440Z,78.00
2023-04-15T02:13:59.407Z,78.01
2023-04-15T02:14:59.690Z,78.19
2023-04-15T02:15:59.395Z,78.26
2023-04-15T02:16:59.483Z,78.14
2023-04-15T02:17:59.398Z,78.18
2023-04-15T02:18:59.548Z,78.17
2023-04-15T02:19:59.323Z,78.16
2023-04-15T02:20:59.366Z,78.25
2023-04-15T02:21:59.296Z,78.24
2023-04-15T02:22:59.321Z,78.09
2023-04-15T02:23:59.295Z,77.98
2023-04-15T02:24:59.254Z,77.95
2023-04-15T02:25:59.259Z,78.10
2023-04-15T02:26:59.226Z,78.03
2023-04-15T02:27:59.233Z,78.13
2023-04-15T02:28:59.418Z,78.12
2023-04-15T02:29:59.214Z,77.87
2023-04-15T02:30:59.223Z,77.85
2023-04-15T02:31:59.207Z,77.63
2023-04-15T02:32:59.195Z,77.60
2023-04-15T02:33:59.147Z,77.56
2023-04-15T02:34:59.120Z,77.75
2023-04-15T02:35:59.135Z,77.95
2023-04-15T02:36:59.101Z,77.65
2023-04-15T02:37:59.088Z,77.52
2023-04-15T02:38:59.136Z,77.48
2023-04-15T02:39:59.076Z,77.40
2023-04-15T02:40:59.063Z,77.41
2023-04-15T02:41:59.049Z,77.43
2023-04-15T02:42:59.032Z,77.41
2023-04-15T02:43:59.010Z,77.50
2023-04-15T02:44:58.997Z,77.41
2023-04-15T02:45:59.020Z,77.25
2023-04-15T02:46:58.981Z,77.30
2023-04-15T02:47:59.068Z,77.27
2023-04-15T02:48:59.116Z,77.34
2023-04-15T02:49:58.974Z,77.20
2023-04-15T02:50:58.927Z,77.28
2023-04-15T02:51:58.937Z,77.33
2023-04-15T02:52:58.897Z,77.24
2023-04-15T02:53:58.878Z,77.17
2023-04-15T02:54:58.889Z,77.08
2023-04-15T02:55:58.884Z,77.16
2023-04-15T02:56:58.847Z,77.25
2023-04-15T02:57:58.836Z,77.04
2023-04-15T02:58:58.896Z,77.05
2023-04-15T02:59:58.840Z,77.12
2023-04-15T03:00:58.825Z,77.16
2023-04-15T03:01:58.818Z,77.13
2023-04-15T03:02:58.996Z,77.12
2023-04-15T03:03:58.814Z,77.26
2023-04-15T03:04:58.745Z,77.31
2023-04-15T03:05:58.735Z,77.29
2023-04-15T03:06:58.747Z,77.16
2023-04-15T03:07:58.715Z,77.06
2023-04-15T03:08:58.816Z,77.22
2023-04-15T03:09:58.670Z,77.54
2023-04-15T03:10:58.667Z,77.46
2023-04-15T03:11:58.658Z,77.37
2023-04-15T03:12:58.649Z,77.32
2023-04-15T03:13:58.630Z,77.36
2023-04-15T03:14:58.608Z,77.30
2023-04-15T03:15:58.652Z,77.26
2023-04-15T03:16:58.577Z,77.29
2023-04-15T03:17:58.600Z,77.30
2023-04-15T03:18:58.700Z,77.22
2023-04-15T03:19:58.606Z,77.23
2023-04-15T03:20:58.558Z,77.12
2023-04-15T03:21:58.524Z,77.05
2023-04-15T03:22:58.514Z,76.77
2023-04-15T03:23:58.568Z,76.77
2023-04-15T03:24:58.490Z,76.85
2023-04-15T03:25:58.503Z,76.72
2023-04-15T03:26:58.454Z,76.83
2023-04-15T03:27:58.447Z,76.70
2023-04-15T03:28:58.482Z,76.59
2023-04-15T03:29:58.429Z,76.63
2023-04-15T03:30:58.449Z,76.57
2023-04-15T03:31:58.408Z,76.68
2023-04-15T03:32:58.471Z,76.58
2023-04-15T03:33:58.380Z,76.57
2023-04-15T03:34:58.362Z,76.74
2023-04-15T03:35:58.343Z,76.50
2023-04-15T03:36:58.333Z,76.54
2023-04-15T03:37:58.352Z,76.51
2023-04-15T03:38:58.453Z,76.52
2023-04-15T03:39:58.298Z,76.45
2023-04-15T03:40:58.300Z,76.39
2023-04-15T03:41:58.260Z,76.25
2023-04-15T03:42:58.262Z,76.32
2023-04-15T03:43:58.242Z,76.37
2023-04-15T03:44:58.221Z,76.28
2023-04-15T03:45:59.731Z,76.26
2023-04-15T03:46:58.204Z,76.20
2023-04-15T03:48:07.282Z,76.04
2023-04-15T03:48:58.222Z,76.00
2023-04-15T03:49:58.165Z,76.05
2023-04-15T03:50:58.143Z,76.12
2023-04-15T03:51:58.153Z,76.12
2023-04-15T03:52:58.125Z,76.00
2023-04-15T03:53:58.109Z,75.93
2023-04-15T03:54:58.107Z,75.88
2023-04-15T03:55:58.083Z,75.98
2023-04-15T03:56:58.069Z,75.86
2023-04-15T03:57:58.087Z,75.79
2023-04-15T03:58:58.078Z,75.89
2023-04-15T03:59:58.070Z,75.82
2023-04-15T04:00:58.033Z,75.81
2023-04-15T04:01:58.114Z,75.87
2023-04-15T04:02:58.228Z,75.81
2023-04-15T04:03:58.099Z,75.87
2023-04-15T04:04:57.980Z,75.85
2023-04-15T04:05:57.951Z,75.72
2023-04-15T04:06:57.993Z,75.68
2023-04-15T04:07:57.948Z,75.72
2023-04-15T04:08:57.928Z,76.04
2023-04-15T04:09:57.923Z,75.85
2023-04-15T04:10:57.893Z,75.96
2023-04-15T04:11:57.897Z,75.84
2023-04-15T04:12:57.879Z,75.69
2023-04-15T04:13:57.866Z,75.74
2023-04-15T04:14:57.841Z,75.77
2023-04-15T04:15:57.913Z,75.71
2023-04-15T04:16:57.863Z,75.73
2023-04-15T04:17:57.911Z,75.69
2023-04-15T04:18:57.802Z,75.57
2023-04-15T04:19:57.773Z,75.51
2023-04-15T04:20:57.759Z,75.66
2023-04-15T04:21:57.757Z,75.44
2023-04-15T04:22:57.728Z,75.48
2023-04-15T04:23:57.733Z,75.52
2023-04-15T04:24:57.720Z,75.54
2023-04-15T04:25:57.716Z,75.43
2023-04-15T04:26:57.712Z,75.44
2023-04-15T04:27:57.691Z,75.37
2023-04-15T04:28:57.680Z,75.14
2023-04-15T04:29:57.659Z,75.28
2023-04-15T04:30:57.640Z,75.20
2023-04-15T04:31:57.674Z,75.33
2023-04-15T04:32:57.628Z,75.22
2023-04-15T04:33:57.617Z,75.21
2023-04-15T04:34:57.585Z,75.20
2023-04-15T04:35:57.569Z,75.20
2023-04-15T04:36:57.551Z,75.20
2023-04-15T04:37:57.547Z,75.04
2023-04-15T04:38:57.546Z,75.18
2023-04-15T04:39:57.523Z,75.07
2023-04-15T04:40:57.518Z,74.84
2023-04-15T04:41:57.516Z,74.97
2023-04-15T04:42:57.474Z,74.94
2023-04-15T04:43:57.488Z,75.00
2023-04-15T04:44:57.482Z,74.98
2023-04-15T04:45:57.523Z,75.16
2023-04-15T04:46:57.422Z,75.03
2023-04-15T04:47:57.465Z,75.10
2023-04-15T04:48:57.421Z,74.96
2023-04-15T04:49:57.391Z,74.91
2023-04-15T04:50:57.367Z,74.86
2023-04-15T04:51:57.376Z,74.94
2023-04-15T04:52:57.343Z,74.90
2023-04-15T04:53:57.330Z,74.87
2023-04-15T04:54:57.328Z,74.89
2023-04-15T04:55:57.305Z,74.63
2023-04-15T04:56:57.301Z,74.74
2023-04-15T04:57:57.281Z,74.76
2023-04-15T04:58:57.285Z,74.68
2023-04-15T04:59:57.260Z,74.45
2023-04-15T05:00:57.279Z,74.49
2023-04-15T05:01:57.291Z,74.35
2023-04-15T05:02:57.310Z,74.23
2023-04-15T05:03:57.315Z,74.29
2023-04-15T05:04:57.212Z,74.20
2023-04-15T05:05:57.180Z,74.02
2023-04-15T05:06:57.188Z,74.00
2023-04-15T05:07:57.181Z,73.92
2023-04-15T05:08:57.144Z,73.84
2023-04-15T05:09:57.136Z,73.90
2023-04-15T05:10:57.132Z,73.77
2023-04-15T05:11:57.117Z,73.70
2023-04-15T05:12:57.113Z,73.75
2023-04-15T05:13:57.076Z,73.52
2023-04-15T05:14:57.072Z,73.52
2023-04-15T05:15:57.130Z,73.43
2023-04-15T05:16:57.055Z,73.53
2023-04-15T05:17:57.124Z,73.64
2023-04-15T05:18:57.018Z,73.48
2023-04-15T05:19:57.001Z,73.54
2023-04-15T05:20:57.007Z,73.49
2023-04-15T05:21:56.976Z,73.69
2023-04-15T05:22:56.970Z,73.44
2023-04-15T05:23:56.957Z,73.16
2023-04-15T05:24:56.960Z,73.22
2023-04-15T05:25:56.925Z,73.20
2023-04-15T05:26:56.930Z,73.23
2023-04-15T05:27:56.889Z,73.35
2023-04-15T05:28:56.884Z,73.14
2023-04-15T05:29:56.892Z,73.32
2023-04-15T05:30:56.894Z,73.29
2023-04-15T05:31:56.878Z,73.02
2023-04-15T05:32:56.911Z,73.19
2023-04-15T05:33:56.815Z,73.09
2023-04-15T05:34:56.805Z,73.24
2023-04-15T05:35:56.820Z,73.16
2023-04-15T05:36:56.786Z,73.10
2023-04-15T05:37:56.780Z,72.93
2023-04-15T05:38:56.773Z,72.98
2023-04-15T05:39:56.763Z,73.05
2023-04-15T05:40:56.746Z,72.92
2023-04-15T05:41:56.714Z,72.86
2023-04-15T05:42:56.710Z,72.72
2023-04-15T05:43:56.682Z,72.61
2023-04-15T05:44:56.691Z,72.41
2023-04-15T05:45:56.699Z,72.37
2023-04-15T05:46:56.687Z,72.28
2023-04-15T05:47:56.714Z,72.37
2023-04-15T05:48:56.869Z,72.27
2023-04-15T05:49:56.617Z,72.16
2023-04-15T05:50:56.600Z,72.24
2023-04-15T05:51:56.616Z,72.28
2023-04-15T05:52:56.565Z,72.47
2023-04-15T05:53:56.574Z,72.53
2023-04-15T05:54:56.555Z,72.47
2023-04-15T05:55:56.534Z,72.41
2023-04-15T05:56:56.543Z,72.15
2023-04-15T05:57:56.504Z,72.14
2023-04-15T05:58:56.500Z,71.91
2023-04-15T05:59:56.486Z,71.98
2023-04-15T06:00:56.468Z,72.21
2023-04-15T06:01:56.538Z,72.14
2023-04-15T06:02:56.521Z,71.96
2023-04-15T06:03:56.569Z,71.90
2023-04-15T06:04:56.441Z,71.70
2023-04-15T06:05:56.404Z,71.86
2023-04-15T06:06:56.420Z,71.88
2023-04-15T06:07:56.378Z,71.63
2023-04-15T06:08:56.385Z,71.54
2023-04-15T06:09:56.346Z,71.60
2023-04-15T06:10:56.350Z,71.68
2023-04-15T06:11:56.343Z,71.65
2023-04-15T06:12:56.335Z,71.29
2023-04-15T06:13:56.298Z,71.11
2023-04-15T06:14:56.870Z,70.96
2023-04-15T06:15:56.304Z,70.87
2023-04-15T06:16:56.284Z,70.77
2023-04-15T06:17:56.306Z,70.85
2023-04-15T06:18:56.248Z,70.88
2023-04-15T06:19:56.230Z,70.93
2023-04-15T06:20:56.208Z,71.07
2023-04-15T06:21:56.241Z,71.04
2023-04-15T06:22:56.177Z,70.89
2023-04-15T06:23:56.165Z,70.74
2023-04-15T06:24:56.165Z,70.47
2023-04-15T06:25:56.128Z,70.38
2023-04-15T06:26:56.122Z,70.30
2023-04-15T06:27:56.140Z,70.39
2023-04-15T06:28:56.117Z,70.03
2023-04-15T06:29:56.080Z,69.97
2023-04-15T06:30:56.080Z,70.23
2023-04-15T06:31:56.078Z,70.02
2023-04-15T06:32:56.105Z,70.04
2023-04-15T06:33:56.032Z,69.86
2023-04-15T06:34:56.016Z,69.77
2023-04-15T06:35:56.002Z,70.00
2023-04-15T06:36:56.002Z,70.00
2023-04-15T06:37:55.999Z,69.96
2023-04-15T06:38:55.965Z,70.07
2023-04-15T06:39:55.950Z,70.09
2023-04-15T06:40:55.937Z,69.73
2023-04-15T06:41:55.924Z,69.81
2023-04-15T06:42:55.924Z,69.61
2023-04-15T06:43:55.916Z,69.51
2023-04-15T06:44:55.894Z,69.65
2023-04-15T06:45:55.947Z,69.54
2023-04-15T06:46:55.872Z,69.42
2023-04-15T06:47:55.882Z,69.43
2023-04-15T06:48:55.838Z,69.06
2023-04-15T06:49:55.833Z,69.13
2023-04-15T06:50:55.819Z,69.30
2023-04-15T06:51:55.812Z,69.20
2023-04-15T06:52:55.814Z,69.30
2023-04-15T06:53:55.771Z,69.25
2023-04-15T06:54:55.754Z,69.27
2023-04-15T06:55:55.749Z,69.27
2023-04-15T06:56:55.732Z,69.06
2023-04-15T06:57:55.746Z,69.07
2023-04-15T06:58:55.710Z,69.21
2023-04-15T06:59:55.695Z,69.19
2023-04-15T07:00:55.729Z,68.93
2023-04-15T07:01:55.699Z,68.81
2023-04-15T07:02:55.753Z,68.71
2023-04-15T07:03:55.715Z,68.63
2023-04-15T07:04:55.637Z,68.47
2023-04-15T07:05:55.615Z,68.45
2023-04-15T07:06:55.633Z,68.54
2023-04-15T07:07:55.587Z,68.49
2023-04-15T07:08:55.598Z,68.83
2023-04-15T07:09:55.563Z,68.57
2023-04-15T07:10:55.562Z,68.34
2023-04-15T07:11:55.530Z,68.30
2023-04-15T07:12:55.527Z,68.33
2023-04-15T07:13:55.527Z,68.19
2023-04-15T07:14:55.516Z,68.33
2023-04-15T07:15:55.483Z,68.08
2023-04-15T07:16:55.514Z,68.36
2023-04-15T07:17:55.502Z,68.32
2023-04-15T07:18:55.489Z,68.27
2023-04-15T07:19:55.447Z,68.25
2023-04-15T07:20:55.426Z,67.82
2023-04-15T07:21:55.421Z,67.81
2023-04-15T07:22:55.392Z,67.26
2023-04-15T07:23:55.439Z,67.43
2023-04-15T07:24:55.370Z,67.71
2023-04-15T07:25:55.363Z,67.59
2023-04-15T07:26:55.350Z,67.45
2023-04-15T07:27:55.334Z,67.26
2023-04-15T07:28:55.335Z,67.15
2023-04-15T07:29:55.305Z,67.39
2023-04-15T07:30:55.310Z,67.57
2023-04-15T07:31:55.285Z,67.55
2023-04-15T07:32:55.325Z,67.48
2023-04-15T07:33:55.257Z,67.45
2023-04-15T07:34:55.250Z,67.49
2023-04-15T07:35:55.221Z,67.48
2023-04-15T07:36:55.217Z,67.41
2023-04-15T07:37:55.196Z,66.99
2023-04-15T07:38:55.216Z,67.03
2023-04-15T07:39:55.186Z,67.25
2023-04-15T07:40:55.156Z,67.13
2023-04-15T07:41:55.165Z,66.79
2023-04-15T07:42:55.145Z,66.87
2023-04-15T07:43:55.132Z,66.72
2023-04-15T07:44:55.123Z,66.44
2023-04-15T07:45:55.140Z,66.88
2023-04-15T07:46:55.080Z,66.67
2023-04-15T07:47:55.173Z,66.86
2023-04-15T07:48:55.060Z,66.91
2023-04-15T07:49:55.061Z,66.66
2023-04-15T07:50:55.048Z,66.46
2023-04-15T07:51:55.108Z,66.35
2023-04-15T07:52:55.008Z,65.89
2023-04-15T07:53:55.013Z,65.86
2023-04-15T07:54:55.008Z,65.88
2023-04-15T07:55:54.973Z,65.54
2023-04-15T07:56:54.979Z,65.61
2023-04-15T07:57:54.958Z,65.49
2023-04-15T07:58:54.933Z,65.28
2023-04-15T07:59:54.929Z,65.23
2023-04-15T08:00:54.905Z,65.32
2023-04-15T08:01:54.904Z,65.72
2023-04-15T08:02:54.996Z,65.71
2023-04-15T08:03:55.001Z,65.61
2023-04-15T08:04:54.905Z,65.31
2023-04-15T08:05:54.848Z,65.15
2023-04-15T08:06:55.273Z,64.99
2023-04-15T08:07:54.818Z,64.77
2023-04-15T08:08:54.825Z,64.48
2023-04-15T08:09:54.807Z,64.89
2023-04-15T08:10:54.804Z,64.93
2023-04-15T08:11:54.772Z,64.98
2023-04-15T08:12:54.819Z,64.80
2023-04-15T08:13:54.755Z,64.45
2023-04-15T08:14:54.764Z,64.32
2023-04-15T08:15:54.726Z,64.49
2023-04-15T08:16:54.726Z,64.73
2023-04-15T08:17:54.760Z,64.77
2023-04-15T08:18:54.701Z,64.80
2023-04-15T08:19:54.676Z,64.38
2023-04-15T08:20:54.718Z,64.07
2023-04-15T08:21:54.715Z,63.99
2023-04-15T08:22:54.694Z,63.89
2023-04-15T08:23:54.627Z,63.76
2023-04-15T08:24:54.601Z,63.62
2023-04-15T08:25:54.595Z,63.70
2023-04-15T08:26:54.569Z,63.95
2023-04-15T08:27:54.560Z,64.42
2023-04-15T08:28:54.553Z,64.16
2023-04-15T08:29:54.530Z,63.81
2023-04-15T08:30:54.548Z,63.97
2023-04-15T08:31:54.581Z,63.97
2023-04-15T08:32:54.548Z,63.92
2023-04-15T08:33:54.500Z,64.04
2023-04-15T08:34:54.468Z,64.00
2023-04-15T08:35:54.491Z,64.21
2023-04-15T08:36:54.465Z,63.86
2023-04-15T08:37:54.463Z,64.20
2023-04-15T08:38:54.430Z,64.09
2023-04-15T08:39:54.409Z,63.89
2023-04-15T08:40:54.406Z,63.75
2023-04-15T08:41:54.397Z,63.94
2023-04-15T08:42:54.396Z,63.86
2023-04-15T08:43:54.369Z,63.62
2023-04-15T08:44:54.365Z,63.78
2023-04-15T08:45:54.338Z,63.27
2023-04-15T08:46:54.363Z,63.48
2023-04-15T08:47:54.375Z,63.67
2023-04-15T08:48:54.301Z,63.63
2023-04-15T08:49:54.285Z,63.80
2023-04-15T08:50:54.291Z,63.84
2023-04-15T08:51:54.264Z,64.06
2023-04-15T08:52:54.256Z,63.87
2023-04-15T08:53:54.232Z,64.06
2023-04-15T08:54:54.222Z,63.87
2023-04-15T08:55:54.219Z,64.30
2023-04-15T08:56:54.232Z,64.32
2023-04-15T08:57:54.179Z,63.71
2023-04-15T08:58:54.187Z,63.54
2023-04-15T08:59:54.157Z,63.41
2023-04-15T09:00:54.214Z,63.37
2023-04-15T09:01:54.202Z,63.33
2023-04-15T09:02:54.189Z,63.28
2023-04-15T09:03:54.176Z,63.20
2023-04-15T09:04:54.109Z,62.97
2023-04-15T09:05:54.081Z,63.54
2023-04-15T09:06:54.095Z,63.71
2023-04-15T09:07:54.109Z,63.46
2023-04-15T09:08:54.156Z,63.45
2023-04-15T09:09:54.042Z,63.43
2023-04-15T09:10:54.008Z,63.33
2023-04-15T09:11:54.049Z,63.42
2023-04-15T09:12:53.991Z,63.42
2023-04-15T09:13:53.993Z,63.51
2023-04-15T09:14:53.991Z,63.13
2023-04-15T09:15:54.057Z,62.99
2023-04-15T09:16:54.075Z,62.97
2023-04-15T09:17:53.999Z,62.97
2023-04-15T09:18:53.911Z,62.90
2023-04-15T09:19:53.931Z,62.77
2023-04-15T09:20:53.883Z,62.54
2023-04-15T09:21:55.521Z,62.61
2023-04-15T09:22:53.858Z,62.67
2023-04-15T09:23:53.872Z,62.84
2023-04-15T09:24:53.862Z,62.59
2023-04-15T09:25:53.819Z,63.00
2023-04-15T09:26:53.806Z,63.05
2023-04-15T09:27:53.812Z,63.30
2023-04-15T09:28:53.773Z,63.47
2023-04-15T09:29:53.766Z,63.22
2023-04-15T09:30:53.789Z,63.37
2023-04-15T09:31:53.745Z,63.25
2023-04-15T09:32:53.821Z,63.10
2023-04-15T09:33:53.719Z,63.11
2023-04-15T09:34:53.707Z,63.45
2023-04-15T09:35:53.707Z,63.21
2023-04-15T09:36:53.709Z,63.23
2023-04-15T09:37:53.682Z,63.03
2023-04-15T09:38:53.688Z,63.23
2023-04-15T09:39:53.635Z,63.21
2023-04-15T09:40:53.644Z,63.22
2023-04-15T09:41:53.620Z,63.28
2023-04-15T09:42:53.608Z,63.39
2023-04-15T09:43:53.591Z,63.36
2023-04-15T09:44:53.587Z,63.55
2023-04-15T09:45:53.640Z,63.61
2023-04-15T09:46:53.615Z,63.58
2023-04-15T09:47:53.568Z,63.16
2023-04-15T09:48:53.524Z,63.35
2023-04-15T09:49:53.583Z,63.16
2023-04-15T09:50:53.510Z,63.04
2023-04-15T09:52:04.579Z,62.73
2023-04-15T09:52:53.486Z,62.34
2023-04-15T09:53:53.468Z,62.12
2023-04-15T09:54:53.453Z,61.62
2023-04-15T09:55:53.438Z,61.73
2023-04-15T09:56:53.439Z,61.77
2023-04-15T09:57:53.406Z,61.26
2023-04-15T09:58:53.404Z,61.56
2023-04-15T09:59:53.473Z,61.64
2023-04-15T10:00:53.384Z,61.46
2023-04-15T10:01:53.505Z,61.06
2023-04-15T10:02:53.513Z,61.06
2023-04-15T10:03:53.405Z,60.94
2023-04-15T10:04:53.348Z,60.69
2023-04-15T10:05:53.310Z,60.75
2023-04-15T10:06:53.308Z,60.71
2023-04-15T10:07:53.285Z,60.56
2023-04-15T10:08:53.271Z,60.33
2023-04-15T10:09:53.268Z,60.35
2023-04-15T10:10:53.277Z,59.97
2023-04-15T10:11:53.243Z,59.91
2023-04-15T10:12:53.208Z,60.20
2023-04-15T10:13:53.211Z,60.23
2023-04-15T10:14:53.195Z,60.55
2023-04-15T10:15:53.211Z,60.57
2023-04-15T10:16:53.184Z,60.15
2023-04-15T10:17:53.230Z,60.57
2023-04-15T10:18:53.169Z,60.58
2023-04-15T10:19:53.143Z,60.90
2023-04-15T10:20:53.120Z,60.83
2023-04-15T10:21:53.118Z,60.82
2023-04-15T10:22:53.097Z,61.10
2023-04-15T10:23:53.100Z,61.05
2023-04-15T10:24:53.101Z,61.06
2023-04-15T10:25:53.075Z,61.02
2023-04-15T10:26:53.047Z,61.28
2023-04-15T10:27:53.616Z,61.30
2023-04-15T10:28:53.034Z,61.38
2023-04-15T10:29:53.029Z,61.40
2023-04-15T10:30:53.013Z,61.13
2023-04-15T10:31:53.040Z,61.10
2023-04-15T10:32:53.020Z,61.06
2023-04-15T10:33:52.947Z,61.26
2023-04-15T10:34:54.456Z,61.32
2023-04-15T10:35:52.939Z,61.41
2023-04-15T10:36:52.908Z,61.57
2023-04-15T10:37:52.906Z,61.48
2023-04-15T10:38:52.886Z,61.51
2023-04-15T10:39:52.877Z,61.32
2023-04-15T10:40:52.886Z,61.61
2023-04-15T10:41:52.866Z,61.66
2023-04-15T10:42:52.904Z,61.69
2023-04-15T10:43:52.893Z,61.64
2023-04-15T10:44:52.830Z,61.50
2023-04-15T10:45:52.856Z,61.18
2023-04-15T10:46:52.849Z,61.28
2023-04-15T10:47:52.862Z,61.28
2023-04-15T10:48:52.786Z,60.58
2023-04-15T10:49:52.787Z,60.51
2023-04-15T10:50:52.735Z,60.68
2023-04-15T10:51:52.749Z,60.80
2023-04-15T10:52:52.749Z,60.87
2023-04-15T10:53:52.701Z,60.91
2023-04-15T10:54:52.699Z,61.24
2023-04-15T10:55:52.670Z,61.27
2023-04-15T10:56:52.662Z,61.30
2023-04-15T10:57:52.658Z,61.23
2023-04-15T10:58:52.677Z,61.31
2023-04-15T10:59:52.637Z,61.14
2023-04-15T11:00:52.630Z,60.97
2023-04-15T11:01:52.916Z,61.05
2023-04-15T11:02:52.769Z,60.99
2023-04-15T11:03:52.860Z,60.87
2023-04-15T11:04:52.616Z,61.40
2023-04-15T11:05:52.551Z,61.36
2023-04-15T11:06:52.530Z,61.29
2023-04-15T11:07:52.530Z,61.26
2023-04-15T11:08:52.506Z,61.42
2023-04-15T11:09:52.499Z,61.13
2023-04-15T11:10:52.502Z,60.90
2023-04-15T11:11:52.459Z,60.77
2023-04-15T11:12:52.449Z,60.22
2023-04-15T11:13:52.482Z,60.28
2023-04-15T11:14:52.418Z,60.45
2023-04-15T11:15:52.429Z,60.63
2023-04-15T11:16:52.452Z,60.63
2023-04-15T11:17:52.482Z,60.77
2023-04-15T11:18:52.369Z,60.59
2023-04-15T11:19:52.367Z,60.73
2023-04-15T11:20:52.363Z,60.37
2023-04-15T11:21:52.334Z,60.50
2023-04-15T11:22:52.341Z,60.65
2023-04-15T11:23:52.312Z,60.73
2023-04-15T11:24:52.297Z,60.87
2023-04-15T11:25:52.315Z,60.84
2023-04-15T11:26:52.292Z,60.83
2023-04-15T11:27:52.268Z,60.78
2023-04-15T11:28:52.274Z,60.33
2023-04-15T11:29:52.232Z,60.06
2023-04-15T11:30:52.239Z,60.13
2023-04-15T11:31:52.265Z,60.15
2023-04-15T11:32:52.241Z,60.31
2023-04-15T11:33:52.214Z,60.07
2023-04-15T11:34:52.168Z,59.98
2023-04-15T11:35:52.175Z,59.87
2023-04-15T11:36:52.147Z,60.26
2023-04-15T11:37:52.140Z,60.72
2023-04-15T11:38:52.122Z,61.22
2023-04-15T11:39:52.116Z,61.50
2023-04-15T11:40:52.119Z,61.68
2023-04-15T11:41:52.129Z,61.56
2023-04-15T11:42:52.081Z,61.50
2023-04-15T11:43:52.059Z,62.22
2023-04-15T11:44:52.074Z,62.34
2023-04-15T11:45:52.063Z,61.85
2023-04-15T11:46:52.053Z,62.22
2023-04-15T11:47:52.104Z,61.83
2023-04-15T11:48:51.993Z,61.61
2023-04-15T11:49:51.993Z,61.76
2023-04-15T11:50:51.999Z,61.89
2023-04-15T11:51:51.976Z,61.98
2023-04-15T11:52:51.959Z,62.28
2023-04-15T11:53:52.080Z,62.50
2023-04-15T11:54:51.950Z,62.41
2023-04-15T11:55:51.927Z,62.40
2023-04-15T11:56:51.913Z,62.40
2023-04-15T11:57:51.920Z,62.10
2023-04-15T11:58:51.903Z,62.09
2023-04-15T11:59:51.859Z,62.13
2023-04-15T12:00:51.851Z,61.93
2023-04-15T12:01:51.870Z,62.14
2023-04-15T12:02:51.965Z,62.30
2023-04-15T12:03:51.970Z,62.55
2023-04-15T12:04:51.900Z,62.45
2023-04-15T12:05:51.802Z,62.09
2023-04-15T12:06:51.793Z,62.62
2023-04-15T12:07:51.759Z,63.32
2023-04-15T12:08:51.754Z,62.69
2023-04-15T12:09:51.731Z,62.74
2023-04-15T12:10:51.720Z,62.61
2023-04-15T12:11:51.754Z,62.85
2023-04-15T12:12:51.697Z,62.71
2023-04-15T12:13:51.685Z,62.93
2023-04-15T12:14:51.671Z,62.93
2023-04-15T12:15:51.690Z,63.29
2023-04-15T12:16:52.479Z,63.03
2023-04-15T12:17:52.346Z,63.34
2023-04-15T12:18:51.636Z,63.44
2023-04-15T12:19:51.605Z,63.67
2023-04-15T12:20:51.597Z,63.39
2023-04-15T12:21:51.606Z,63.13
2023-04-15T12:22:51.591Z,63.42
2023-04-15T12:23:51.575Z,63.75
2023-04-15T12:24:51.564Z,64.10
2023-04-15T12:25:51.536Z,64.01
2023-04-15T12:26:51.545Z,63.75
2023-04-15T12:27:51.523Z,63.75
2023-04-15T12:28:51.554Z,63.91
2023-04-15T12:29:51.485Z,63.79
2023-04-15T12:30:51.471Z,63.47
2023-04-15T12:31:51.464Z,63.26
2023-04-15T12:32:51.498Z,63.00
2023-04-15T12:33:51.442Z,63.22
2023-04-15T12:34:51.437Z,63.29
2023-04-15T12:35:51.416Z,62.94
2023-04-15T12:36:51.445Z,62.83
2023-04-15T12:37:51.425Z,63.06
2023-04-15T12:38:51.387Z,62.95
2023-04-15T12:39:51.386Z,62.93
2023-04-15T12:40:51.351Z,63.09
2023-04-15T12:41:51.352Z,63.25
2023-04-15T12:42:51.335Z,63.09
2023-04-15T12:43:51.321Z,62.87
2023-04-15T12:44:51.308Z,62.93
2023-04-15T12:45:51.291Z,62.63
2023-04-15T12:46:51.317Z,62.53
2023-04-15T12:47:51.347Z,62.69
2023-04-15T12:48:51.355Z,62.88
2023-04-15T12:49:51.239Z,63.18
2023-04-15T12:50:51.228Z,63.11
2023-04-15T12:51:51.239Z,62.88